Anasco, Puerto Rico
Current Conditions -  °F | °C
As of 6:50 AM on Friday 31 Oct 2014 (Local Time) from TJBQ Reporting Station
Clear Clear  
Wind Chill: 75°   Ceiling: Unl
Heat Index: 75°   Visibility: 10mi
Dew Point: 73°   Wind: 3mph
Humidity: 94%   Direction: 180°S
Pressure: 29.86"   Gusts: NA
Location:  18.29°N, 67.14°W
Report Text: TJBQ 311050Z 18003KT 10SM SKC 24/23 A2986 RMK RWY 8 - ATIS K
Loading
Personal Weather Stations






























Interactive Weather Map New forecast layout! Learn more

10-Day Weather Forecast

Advertisements
Track Severe Weather on mobile